WJA118 CYVR-CYLW
Flight info
| Callsign | WJA118 |
|---|---|
| Flight time | 0h 32m |
| Altitude | 27000 |
| Route | JANEK DCT SEKAB SEKAB5 |
| Aircraft | B738/M-L/C |
Departure
| Time | 2026-05-06 14:27 |
|---|---|
| Airport | Vancouver International Airport (CYVR) |
Arrival
| Time | 2026-05-06 14:59 |
|---|---|
| Airport | Kelowna International Airport (CYLW) |
| Time | Latitude | Longitude | Altitude | Speed | Heading |
|---|---|---|---|---|---|
| 2026-05-06 13:58 | 49.19173 | -123.18038 | 8 ft | 0 kts | 10° |
| 2026-05-06 14:16 | 49.19162 | -123.18041 | 8 ft | 2 kts | 9° |
| 2026-05-06 14:16 | 49.19147 | -123.18045 | 8 ft | 2 kts | 14° |
| 2026-05-06 14:16 | 49.19134 | -123.18053 | 8 ft | 2 kts | 33° |
| 2026-05-06 14:16 | 49.19122 | -123.18068 | 8 ft | 2 kts | 48° |
| 2026-05-06 14:17 | 49.19114 | -123.18086 | 8 ft | 2 kts | 63° |
| 2026-05-06 14:17 | 49.19108 | -123.18108 | 8 ft | 2 kts | 79° |
| 2026-05-06 14:17 | 49.19107 | -123.18130 | 8 ft | 2 kts | 94° |
| 2026-05-06 14:17 | 49.19108 | -123.18141 | 8 ft | 1 kts | 102° |
| 2026-05-06 14:18 | 49.19109 | -123.18146 | 8 ft | 0 kts | 100° |
| 2026-05-06 14:19 | 49.19107 | -123.18136 | 8 ft | 3 kts | 100° |
| 2026-05-06 14:20 | 49.19095 | -123.18076 | 8 ft | 6 kts | 122° |
| 2026-05-06 14:20 | 49.19050 | -123.18045 | 8 ft | 8 kts | 180° |
| 2026-05-06 14:20 | 49.18985 | -123.18059 | 8 ft | 9 kts | 189° |
| 2026-05-06 14:20 | 49.18927 | -123.18087 | 8 ft | 9 kts | 230° |
| 2026-05-06 14:21 | 49.18928 | -123.18195 | 8 ft | 11 kts | 277° |
| 2026-05-06 14:21 | 49.18943 | -123.18333 | 8 ft | 14 kts | 279° |
| 2026-05-06 14:21 | 49.18980 | -123.18474 | 8 ft | 14 kts | 321° |
| 2026-05-06 14:21 | 49.19068 | -123.18578 | 8 ft | 17 kts | 322° |
| 2026-05-06 14:22 | 49.19168 | -123.18700 | 8 ft | 19 kts | 321° |
| 2026-05-06 14:22 | 49.19261 | -123.18810 | 8 ft | 14 kts | 322° |
| 2026-05-06 14:22 | 49.19332 | -123.18895 | 8 ft | 12 kts | 322° |
| 2026-05-06 14:22 | 49.19359 | -123.19017 | 8 ft | 14 kts | 261° |
| 2026-05-06 14:23 | 49.19339 | -123.19184 | 8 ft | 17 kts | 259° |
| 2026-05-06 14:23 | 49.19314 | -123.19377 | 8 ft | 19 kts | 260° |
| 2026-05-06 14:23 | 49.19288 | -123.19595 | 8 ft | 22 kts | 259° |
| 2026-05-06 14:23 | 49.19257 | -123.19835 | 8 ft | 24 kts | 259° |
| 2026-05-06 14:24 | 49.19227 | -123.20081 | 8 ft | 16 kts | 259° |
| 2026-05-06 14:24 | 49.19205 | -123.20262 | 8 ft | 18 kts | 259° |
| 2026-05-06 14:24 | 49.19180 | -123.20474 | 8 ft | 19 kts | 267° |
| 2026-05-06 14:24 | 49.19193 | -123.20637 | 8 ft | 14 kts | 280° |
| 2026-05-06 14:25 | 49.19200 | -123.20749 | 8 ft | 7 kts | 259° |
| 2026-05-06 14:25 | 49.19198 | -123.20760 | 8 ft | 3 kts | 255° |
| 2026-05-06 14:25 | 49.19169 | -123.20818 | 8 ft | 8 kts | 211° |
| 2026-05-06 14:25 | 49.19104 | -123.20840 | 8 ft | 9 kts | 189° |
| 2026-05-06 14:26 | 49.19030 | -123.20820 | 8 ft | 10 kts | 138° |
| 2026-05-06 14:26 | 49.19001 | -123.20702 | 8 ft | 17 kts | 101° |
| 2026-05-06 14:26 | 49.18935 | -123.20122 | 8 ft | 101 kts | 100° |
| 2026-05-06 14:26 | 49.18765 | -123.18679 | 158 ft | 164 kts | 102° |
| 2026-05-06 14:27 | 49.18559 | -123.17014 | 1210 ft | 166 kts | 97° |
| 2026-05-06 14:27 | 49.18435 | -123.15288 | 2202 ft | 173 kts | 99° |
| 2026-05-06 14:27 | 49.18283 | -123.13441 | 3197 ft | 181 kts | 98° |
| 2026-05-06 14:27 | 49.18119 | -123.11500 | 4001 ft | 199 kts | 99° |
| 2026-05-06 14:28 | 49.17907 | -123.09352 | 4895 ft | 213 kts | 100° |
| 2026-05-06 14:28 | 49.17697 | -123.07114 | 5853 ft | 224 kts | 93° |
| 2026-05-06 14:28 | 49.17859 | -123.04723 | 6799 ft | 235 kts | 73° |
| 2026-05-06 14:28 | 49.18540 | -123.02413 | 7702 ft | 245 kts | 54° |
| 2026-05-06 14:29 | 49.19657 | -123.00436 | 8725 ft | 247 kts | 38° |
| 2026-05-06 14:29 | 49.21074 | -122.98819 | 9567 ft | 257 kts | 31° |
| 2026-05-06 14:29 | 49.22583 | -122.97250 | 10397 ft | 268 kts | 30° |
| 2026-05-06 14:29 | 49.24196 | -122.95563 | 11167 ft | 282 kts | 31° |
| 2026-05-06 14:30 | 49.25833 | -122.93830 | 12107 ft | 286 kts | 31° |
| 2026-05-06 14:30 | 49.27517 | -122.92044 | 13006 ft | 291 kts | 30° |
| 2026-05-06 14:30 | 49.29262 | -122.90198 | 13938 ft | 296 kts | 30° |
| 2026-05-06 14:30 | 49.31113 | -122.88242 | 14869 ft | 301 kts | 30° |
| 2026-05-06 14:31 | 49.33005 | -122.86243 | 15765 ft | 306 kts | 30° |
| 2026-05-06 14:31 | 49.34962 | -122.84174 | 16651 ft | 310 kts | 30° |
| 2026-05-06 14:31 | 49.36914 | -122.82107 | 17503 ft | 315 kts | 30° |
| 2026-05-06 14:31 | 49.38923 | -122.79978 | 18359 ft | 318 kts | 30° |
| 2026-05-06 14:32 | 49.40991 | -122.77785 | 19146 ft | 324 kts | 29° |
| 2026-05-06 14:32 | 49.43115 | -122.75530 | 19968 ft | 328 kts | 29° |
| 2026-05-06 14:32 | 49.45250 | -122.73262 | 20683 ft | 334 kts | 29° |
| 2026-05-06 14:32 | 49.47432 | -122.70940 | 21459 ft | 337 kts | 29° |
| 2026-05-06 14:33 | 49.49656 | -122.68568 | 22196 ft | 342 kts | 28° |
| 2026-05-06 14:33 | 49.51909 | -122.66167 | 22890 ft | 346 kts | 28° |
| 2026-05-06 14:33 | 49.54187 | -122.63734 | 23574 ft | 351 kts | 28° |
| 2026-05-06 14:33 | 49.56553 | -122.61207 | 24268 ft | 355 kts | 28° |
| 2026-05-06 14:34 | 49.58902 | -122.58691 | 24980 ft | 358 kts | 28° |
| 2026-05-06 14:34 | 49.61277 | -122.56143 | 25674 ft | 360 kts | 28° |
| 2026-05-06 14:34 | 49.63693 | -122.53548 | 26319 ft | 364 kts | 28° |
| 2026-05-06 14:34 | 49.66067 | -122.50850 | 26933 ft | 369 kts | 33° |
| 2026-05-06 14:35 | 49.68386 | -122.47647 | 27068 ft | 392 kts | 40° |
| 2026-05-06 14:35 | 49.70565 | -122.43998 | 27061 ft | 406 kts | 44° |
| 2026-05-06 14:35 | 49.72696 | -122.40031 | 27071 ft | 408 kts | 46° |
| 2026-05-06 14:35 | 49.74804 | -122.35967 | 27067 ft | 425 kts | 46° |
| 2026-05-06 14:36 | 49.76899 | -122.31908 | 27063 ft | 440 kts | 47° |
| 2026-05-06 14:36 | 49.79133 | -122.27590 | 27058 ft | 455 kts | 47° |
| 2026-05-06 14:36 | 49.81411 | -122.23201 | 27055 ft | 470 kts | 48° |
| 2026-05-06 14:36 | 49.83802 | -122.18601 | 27054 ft | 485 kts | 47° |
| 2026-05-06 14:37 | 49.86268 | -122.13858 | 27057 ft | 500 kts | 48° |
| 2026-05-06 14:37 | 49.88752 | -122.09076 | 27052 ft | 507 kts | 48° |
| 2026-05-06 14:37 | 49.91274 | -122.04208 | 27050 ft | 508 kts | 47° |
| 2026-05-06 14:37 | 49.93831 | -121.99262 | 27055 ft | 508 kts | 48° |
| 2026-05-06 14:38 | 49.96440 | -121.94207 | 27050 ft | 508 kts | 48° |
| 2026-05-06 14:38 | 49.98959 | -121.89323 | 27055 ft | 508 kts | 48° |
| 2026-05-06 14:38 | 50.01500 | -121.84387 | 27046 ft | 505 kts | 47° |
| 2026-05-06 14:38 | 50.04020 | -121.79456 | 27042 ft | 485 kts | 49° |
| 2026-05-06 14:39 | 50.06163 | -121.74573 | 27027 ft | 467 kts | 57° |
| 2026-05-06 14:39 | 50.07681 | -121.69347 | 26991 ft | 451 kts | 70° |
| 2026-05-06 14:39 | 50.08496 | -121.63909 | 26825 ft | 439 kts | 80° |
| 2026-05-06 14:39 | 50.08835 | -121.58498 | 26241 ft | 437 kts | 86° |
| 2026-05-06 14:40 | 50.08934 | -121.53139 | 25594 ft | 435 kts | 88° |
| 2026-05-06 14:40 | 50.08935 | -121.47730 | 24900 ft | 435 kts | 90° |
| 2026-05-06 14:40 | 50.08899 | -121.42304 | 24225 ft | 433 kts | 90° |
| 2026-05-06 14:40 | 50.08856 | -121.36781 | 23620 ft | 430 kts | 90° |
| 2026-05-06 14:41 | 50.08820 | -121.31773 | 23062 ft | 427 kts | 90° |
| 2026-05-06 14:41 | 50.08791 | -121.26761 | 22347 ft | 427 kts | 90° |
| 2026-05-06 14:41 | 50.08765 | -121.21431 | 21789 ft | 422 kts | 90° |
| 2026-05-06 14:41 | 50.08743 | -121.16157 | 21252 ft | 416 kts | 90° |
| 2026-05-06 14:42 | 50.08723 | -121.11176 | 20556 ft | 416 kts | 90° |
| 2026-05-06 14:42 | 50.08700 | -121.06044 | 19877 ft | 415 kts | 90° |
| 2026-05-06 14:42 | 50.08674 | -121.00872 | 19235 ft | 411 kts | 90° |
| 2026-05-06 14:42 | 50.08645 | -120.95713 | 18704 ft | 405 kts | 90° |
| 2026-05-06 14:43 | 50.08615 | -120.90720 | 18096 ft | 401 kts | 90° |
| 2026-05-06 14:43 | 50.08583 | -120.85818 | 17375 ft | 401 kts | 89° |
| 2026-05-06 14:43 | 50.08550 | -120.80920 | 16746 ft | 398 kts | 89° |
| 2026-05-06 14:43 | 50.08516 | -120.75965 | 16179 ft | 392 kts | 89° |
| 2026-05-06 14:44 | 50.08480 | -120.71178 | 15993 ft | 377 kts | 89° |
| 2026-05-06 14:44 | 50.08443 | -120.66470 | 16016 ft | 372 kts | 89° |
| 2026-05-06 14:44 | 50.08406 | -120.61767 | 16006 ft | 375 kts | 89° |
| 2026-05-06 14:45 | 50.08323 | -120.52226 | 16023 ft | 374 kts | 89° |
| 2026-05-06 14:45 | 50.08278 | -120.47446 | 16017 ft | 374 kts | 89° |
| 2026-05-06 14:45 | 50.08233 | -120.42863 | 16027 ft | 375 kts | 89° |
| 2026-05-06 14:45 | 50.08185 | -120.38182 | 16017 ft | 374 kts | 89° |
| 2026-05-06 14:46 | 50.08137 | -120.33723 | 15828 ft | 367 kts | 90° |
| 2026-05-06 14:46 | 50.08086 | -120.29146 | 15263 ft | 364 kts | 90° |
| 2026-05-06 14:46 | 50.08035 | -120.24630 | 14741 ft | 361 kts | 90° |
| 2026-05-06 14:46 | 50.07982 | -120.20139 | 14169 ft | 359 kts | 90° |
| 2026-05-06 14:47 | 50.07934 | -120.16113 | 13543 ft | 361 kts | 90° |
| 2026-05-06 14:47 | 50.07886 | -120.12210 | 13010 ft | 360 kts | 91° |
| 2026-05-06 14:47 | 50.07837 | -120.08379 | 12490 ft | 358 kts | 91° |
| 2026-05-06 14:47 | 50.07787 | -120.04536 | 11974 ft | 356 kts | 91° |
| 2026-05-06 14:48 | 50.07735 | -120.00697 | 11468 ft | 354 kts | 91° |
| 2026-05-06 14:48 | 50.07682 | -119.96879 | 10949 ft | 352 kts | 91° |
| 2026-05-06 14:48 | 50.07629 | -119.93095 | 10525 ft | 347 kts | 91° |
| 2026-05-06 14:48 | 50.07577 | -119.89449 | 10330 ft | 335 kts | 91° |
| 2026-05-06 14:49 | 50.07524 | -119.85904 | 10224 ft | 321 kts | 91° |
| 2026-05-06 14:49 | 50.07472 | -119.82471 | 10001 ft | 313 kts | 91° |
| 2026-05-06 14:49 | 50.07420 | -119.79104 | 9762 ft | 306 kts | 92° |
| 2026-05-06 14:49 | 50.07436 | -119.75871 | 9673 ft | 293 kts | 85° |
| 2026-05-06 14:50 | 50.07855 | -119.72839 | 9557 ft | 282 kts | 64° |
| 2026-05-06 14:50 | 50.09181 | -119.70357 | 9545 ft | 262 kts | 32° |
| 2026-05-06 14:50 | 50.10896 | -119.68953 | 9543 ft | 249 kts | 24° |
| 2026-05-06 14:50 | 50.12462 | -119.67716 | 9535 ft | 249 kts | 27° |
| 2026-05-06 14:51 | 50.13987 | -119.66413 | 9534 ft | 249 kts | 27° |
| 2026-05-06 14:51 | 50.15693 | -119.64934 | 9537 ft | 250 kts | 28° |
| 2026-05-06 14:51 | 50.17386 | -119.63477 | 9474 ft | 245 kts | 27° |
| 2026-05-06 14:51 | 50.19042 | -119.62062 | 9281 ft | 239 kts | 26° |
| 2026-05-06 14:52 | 50.20647 | -119.60695 | 9054 ft | 235 kts | 27° |
| 2026-05-06 14:52 | 50.22137 | -119.59426 | 8724 ft | 245 kts | 27° |
| 2026-05-06 14:52 | 50.23554 | -119.57999 | 8424 ft | 246 kts | 40° |
| 2026-05-06 14:52 | 50.24541 | -119.55849 | 8190 ft | 248 kts | 70° |
| 2026-05-06 14:53 | 50.24855 | -119.52877 | 7803 ft | 245 kts | 88° |
| 2026-05-06 14:53 | 50.24934 | -119.49940 | 7523 ft | 249 kts | 87° |
| 2026-05-06 14:53 | 50.25008 | -119.46877 | 7190 ft | 246 kts | 91° |
| 2026-05-06 14:53 | 50.24613 | -119.43978 | 6811 ft | 243 kts | 119° |
| 2026-05-06 14:54 | 50.23329 | -119.42022 | 6484 ft | 235 kts | 155° |
| 2026-05-06 14:54 | 50.21641 | -119.41374 | 6186 ft | 227 kts | 176° |
| 2026-05-06 14:54 | 50.19899 | -119.41163 | 5891 ft | 225 kts | 177° |
| 2026-05-06 14:54 | 50.18235 | -119.40952 | 5615 ft | 221 kts | 176° |
| 2026-05-06 14:55 | 50.16556 | -119.40706 | 5349 ft | 215 kts | 175° |
| 2026-05-06 14:55 | 50.14977 | -119.40478 | 5188 ft | 204 kts | 175° |
| 2026-05-06 14:55 | 50.13477 | -119.40271 | 4926 ft | 200 kts | 176° |
| 2026-05-06 14:55 | 50.11973 | -119.40065 | 4617 ft | 197 kts | 175° |
| 2026-05-06 14:56 | 50.10556 | -119.39862 | 4299 ft | 185 kts | 175° |
| 2026-05-06 14:56 | 50.09221 | -119.39674 | 4082 ft | 174 kts | 175° |
| 2026-05-06 14:56 | 50.07914 | -119.39495 | 3776 ft | 173 kts | 175° |
| 2026-05-06 14:56 | 50.06625 | -119.39313 | 3512 ft | 165 kts | 175° |
| 2026-05-06 14:57 | 50.05414 | -119.39143 | 3268 ft | 159 kts | 175° |
| 2026-05-06 14:57 | 50.04292 | -119.38986 | 3056 ft | 149 kts | 174° |
| 2026-05-06 14:57 | 50.03213 | -119.38836 | 2817 ft | 145 kts | 174° |
| 2026-05-06 14:57 | 50.02188 | -119.38693 | 2615 ft | 142 kts | 174° |
| 2026-05-06 14:58 | 50.01128 | -119.38545 | 2398 ft | 143 kts | 174° |
| 2026-05-06 14:58 | 50.00090 | -119.38401 | 2185 ft | 141 kts | 174° |
| 2026-05-06 14:58 | 49.99042 | -119.38254 | 1966 ft | 141 kts | 174° |
| 2026-05-06 14:58 | 49.98020 | -119.38111 | 1756 ft | 139 kts | 174° |
| 2026-05-06 14:59 | 49.97010 | -119.37974 | 1500 ft | 144 kts | 174° |
| 2026-05-06 14:59 | 49.96075 | -119.37843 | 1410 ft | 109 kts | 174° |
| 2026-05-06 14:59 | 49.95535 | -119.37767 | 1410 ft | 51 kts | 175° |
| 2026-05-06 14:59 | 49.95280 | -119.37741 | 1409 ft | 27 kts | 173° |
| 2026-05-06 15:00 | 49.95164 | -119.37750 | 1409 ft | 12 kts | 228° |
| 2026-05-06 15:00 | 49.95150 | -119.37843 | 1409 ft | 5 kts | 264° |
| 2026-05-06 15:00 | 49.95151 | -119.37906 | 1409 ft | 5 kts | 288° |
| 2026-05-06 15:00 | 49.95181 | -119.37948 | 1409 ft | 4 kts | 313° |
| 2026-05-06 15:01 | 49.95192 | -119.38001 | 1410 ft | 4 kts | 276° |
| 2026-05-06 15:01 | 49.95192 | -119.38010 | 1410 ft | 0 kts | 275° |
| 2026-05-06 15:01 | 49.95193 | -119.38017 | 1410 ft | 0 kts | 275° |